sensor_id;sensor_type;location;lat;lon;timestamp;pressure;altitude;pressure_sealevel;temperature;humidity
11172;BME280;5642;50.830;12.082;2024-02-14T00:00:11;99840.03;;;8.50;48.00
11172;BME280;5642;50.830;12.082;2024-02-14T00:02:41;99851.28;;;8.54;48.20
11172;BME280;5642;50.830;12.082;2024-02-14T00:05:10;99851.25;;;8.57;48.31
11172;BME280;5642;50.830;12.082;2024-02-14T00:07:39;99815.03;;;8.37;48.13
11172;BME280;5642;50.830;12.082;2024-02-14T00:10:05;99839.09;;;8.53;47.75
11172;BME280;5642;50.830;12.082;2024-02-14T00:12:33;99792.50;;;8.29;48.10
11172;BME280;5642;50.830;12.082;2024-02-14T00:15:03;99848.50;;;8.64;47.99
11172;BME280;5642;50.830;12.082;2024-02-14T00:17:29;99840.66;;;8.66;48.34
11172;BME280;5642;50.830;12.082;2024-02-14T00:19:56;99842.31;;;8.70;48.49
11172;BME280;5642;50.830;12.082;2024-02-14T00:22:24;99840.47;;;8.77;48.04
11172;BME280;5642;50.830;12.082;2024-02-14T00:24:50;99830.97;;;8.73;48.29
11172;BME280;5642;50.830;12.082;2024-02-14T00:27:17;99842.06;;;8.85;47.94
11172;BME280;5642;50.830;12.082;2024-02-14T00:29:44;99796.34;;;8.60;48.10
11172;BME280;5642;50.830;12.082;2024-02-14T00:32:12;99839.28;;;8.94;47.99
11172;BME280;5642;50.830;12.082;2024-02-14T00:34:39;99842.59;;;9.02;48.07
11172;BME280;5642;50.830;12.082;2024-02-14T00:37:06;99839.16;;;9.00;47.68
11172;BME280;5642;50.830;12.082;2024-02-14T00:39:32;99842.44;;;9.10;48.27
11172;BME280;5642;50.830;12.082;2024-02-14T00:41:59;99847.63;;;9.13;48.01
11172;BME280;5642;50.830;12.082;2024-02-14T00:44:25;99851.00;;;9.20;48.02
11172;BME280;5642;50.830;12.082;2024-02-14T00:46:58;99845.66;;;9.26;47.93
11172;BME280;5642;50.830;12.082;2024-02-14T00:49:29;99841.31;;;9.25;47.81
11172;BME280;5642;50.830;12.082;2024-02-14T00:51:55;99837.81;;;9.24;47.79
11172;BME280;5642;50.830;12.082;2024-02-14T00:54:23;99814.41;;;9.18;47.99
11172;BME280;5642;50.830;12.082;2024-02-14T00:56:49;99834.16;;;9.34;47.79
11172;BME280;5642;50.830;12.082;2024-02-14T00:59:15;99826.28;;;9.36;48.00
11172;BME280;5642;50.830;12.082;2024-02-14T01:01:42;99810.78;;;9.27;47.77
11172;BME280;5642;50.830;12.082;2024-02-14T01:04:08;99811.50;;;9.33;47.84
11172;BME280;5642;50.830;12.082;2024-02-14T01:06:35;99824.38;;;9.44;47.78
11172;BME280;5642;50.830;12.082;2024-02-14T01:09:02;99801.75;;;9.43;47.88
11172;BME280;5642;50.830;12.082;2024-02-14T01:11:30;99798.22;;;9.44;47.92
11172;BME280;5642;50.830;12.082;2024-02-14T01:13:57;99799.88;;;9.48;47.73
11172;BME280;5642;50.830;12.082;2024-02-14T01:16:25;99833.47;;;9.66;47.52
11172;BME280;5642;50.830;12.082;2024-02-14T01:18:54;99763.84;;;9.21;47.93
11172;BME280;5642;50.830;12.082;2024-02-14T01:21:21;99833.44;;;9.68;47.86
11172;BME280;5642;50.830;12.082;2024-02-14T01:23:48;99774.03;;;9.33;47.52
11172;BME280;5642;50.830;12.082;2024-02-14T01:26:15;99797.41;;;9.42;47.66
11172;BME280;5642;50.830;12.082;2024-02-14T01:28:42;99796.34;;;9.51;47.56
11172;BME280;5642;50.830;12.082;2024-02-14T01:31:10;99804.94;;;9.57;47.76
11172;BME280;5642;50.830;12.082;2024-02-14T01:33:38;99807.53;;;9.57;47.77
11172;BME280;5642;50.830;12.082;2024-02-14T01:36:07;99776.38;;;9.47;47.79
11172;BME280;5642;50.830;12.082;2024-02-14T01:38:34;99813.34;;;9.71;47.73
11172;BME280;5642;50.830;12.082;2024-02-14T01:41:02;99802.94;;;9.68;47.73
11172;BME280;5642;50.830;12.082;2024-02-14T01:43:30;99819.31;;;9.78;47.59
11172;BME280;5642;50.830;12.082;2024-02-14T01:46:04;99808.00;;;9.76;47.76
11172;BME280;5642;50.830;12.082;2024-02-14T01:48:34;99788.03;;;9.72;47.77
11172;BME280;5642;50.830;12.082;2024-02-14T01:51:03;99798.22;;;9.84;47.71
11172;BME280;5642;50.830;12.082;2024-02-14T01:53:29;99792.03;;;9.88;47.81
11172;BME280;5642;50.830;12.082;2024-02-14T01:55:59;99758.44;;;9.70;47.91
11172;BME280;5642;50.830;12.082;2024-02-14T01:58:30;99796.16;;;9.98;47.79
11172;BME280;5642;50.830;12.082;2024-02-14T02:01:00;99774.50;;;9.92;47.66
11172;BME280;5642;50.830;12.082;2024-02-14T02:03:26;99797.00;;;10.00;47.80
11172;BME280;5642;50.830;12.082;2024-02-14T02:05:53;99759.00;;;9.82;47.72
11172;BME280;5642;50.830;12.082;2024-02-14T02:08:21;99802.09;;;10.05;47.75
11172;BME280;5642;50.830;12.082;2024-02-14T02:10:47;99800.31;;;10.07;47.78
11172;BME280;5642;50.830;12.082;2024-02-14T02:13:14;99804.66;;;10.08;47.67
11172;BME280;5642;50.830;12.082;2024-02-14T02:15:42;99798.66;;;10.03;47.82
11172;BME280;5642;50.830;12.082;2024-02-14T02:18:12;99781.47;;;9.93;47.70
11172;BME280;5642;50.830;12.082;2024-02-14T02:20:40;99789.22;;;9.96;47.89
11172;BME280;5642;50.830;12.082;2024-02-14T02:23:10;99782.34;;;9.92;47.82
11172;BME280;5642;50.830;12.082;2024-02-14T02:25:38;99790.19;;;9.93;47.60
11172;BME280;5642;50.830;12.082;2024-02-14T02:28:05;99778.13;;;9.86;47.84
11172;BME280;5642;50.830;12.082;2024-02-14T02:30:37;99769.56;;;9.79;47.58
11172;BME280;5642;50.830;12.082;2024-02-14T02:33:05;99800.59;;;9.95;47.67
11172;BME280;5642;50.830;12.082;2024-02-14T02:35:32;99797.16;;;9.93;47.76
11172;BME280;5642;50.830;12.082;2024-02-14T02:37:59;99795.44;;;9.92;47.73
11172;BME280;5642;50.830;12.082;2024-02-14T02:40:25;99763.50;;;9.77;47.76
11172;BME280;5642;50.830;12.082;2024-02-14T02:42:54;99778.13;;;9.86;47.82
11172;BME280;5642;50.830;12.082;2024-02-14T02:45:21;99711.78;;;9.52;47.84
11172;BME280;5642;50.830;12.082;2024-02-14T02:47:48;99766.78;;;9.87;47.77
11172;BME280;5642;50.830;12.082;2024-02-14T02:50:17;99762.28;;;9.92;47.67
11172;BME280;5642;50.830;12.082;2024-02-14T02:52:43;99733.06;;;9.73;47.75
11172;BME280;5642;50.830;12.082;2024-02-14T02:55:09;99766.38;;;10.02;47.74
11172;BME280;5642;50.830;12.082;2024-02-14T02:57:36;99751.56;;;10.03;48.01
11172;BME280;5642;50.830;12.082;2024-02-14T03:00:06;99756.63;;;10.09;47.72
11172;BME280;5642;50.830;12.082;2024-02-14T03:02:35;99757.38;;;10.15;47.73
11172;BME280;5642;50.830;12.082;2024-02-14T03:05:06;99767.53;;;10.29;47.76
11172;BME280;5642;50.830;12.082;2024-02-14T03:07:34;99766.59;;;10.32;47.55
11172;BME280;5642;50.830;12.082;2024-02-14T03:10:00;99748.50;;;10.23;47.80
11172;BME280;5642;50.830;12.082;2024-02-14T03:12:26;99763.09;;;10.31;47.33
11172;BME280;5642;50.830;12.082;2024-02-14T03:14:56;99738.09;;;10.19;47.66
11172;BME280;5642;50.830;12.082;2024-02-14T03:17:24;99745.88;;;10.23;47.66
11172;BME280;5642;50.830;12.082;2024-02-14T03:19:50;99744.09;;;10.23;47.71
11172;BME280;5642;50.830;12.082;2024-02-14T03:22:18;99745.03;;;10.22;47.67
11172;BME280;5642;50.830;12.082;2024-02-14T03:24:46;99748.44;;;10.24;47.67
11172;BME280;5642;50.830;12.082;2024-02-14T03:27:13;99737.25;;;10.16;47.68
11172;BME280;5642;50.830;12.082;2024-02-14T03:29:41;99735.63;;;10.12;47.58
11172;BME280;5642;50.830;12.082;2024-02-14T03:32:08;99723.56;;;10.06;47.71
11172;BME280;5642;50.830;12.082;2024-02-14T03:34:35;99750.31;;;10.19;47.78
11172;BME280;5642;50.830;12.082;2024-02-14T03:37:02;99749.47;;;10.18;47.69
11172;BME280;5642;50.830;12.082;2024-02-14T03:39:31;99746.94;;;10.14;47.53
11172;BME280;5642;50.830;12.082;2024-02-14T03:42:00;99739.13;;;10.11;47.63
11172;BME280;5642;50.830;12.082;2024-02-14T03:44:29;99717.59;;;10.01;47.57
11172;BME280;5642;50.830;12.082;2024-02-14T03:46:57;99726.25;;;10.03;47.73
11172;BME280;5642;50.830;12.082;2024-02-14T03:49:24;99748.56;;;10.19;47.63
11172;BME280;5642;50.830;12.082;2024-02-14T03:51:52;99732.94;;;10.15;47.68
11172;BME280;5642;50.830;12.082;2024-02-14T03:54:21;99738.06;;;10.21;47.66
11172;BME280;5642;50.830;12.082;2024-02-14T03:56:47;99737.09;;;10.24;47.27
11172;BME280;5642;50.830;12.082;2024-02-14T03:59:13;99738.75;;;10.29;47.58
11172;BME280;5642;50.830;12.082;2024-02-14T04:01:44;99732.66;;;10.29;47.48
11172;BME280;5642;50.830;12.082;2024-02-14T04:04:11;99741.19;;;10.35;47.39
11172;BME280;5642;50.830;12.082;2024-02-14T04:06:37;99735.06;;;10.36;47.43
11172;BME280;5642;50.830;12.082;2024-02-14T04:09:03;99666.06;;;10.02;47.40
11172;BME280;5642;50.830;12.082;2024-02-14T04:11:30;99716.81;;;10.33;47.43
11172;BME280;5642;50.830;12.082;2024-02-14T04:13:56;99731.28;;;10.46;47.52
11172;BME280;5642;50.830;12.082;2024-02-14T04:16:22;99727.88;;;10.44;47.33
11172;BME280;5642;50.830;12.082;2024-02-14T04:18:48;99702.09;;;10.29;47.48
11172;BME280;5642;50.830;12.082;2024-02-14T04:21:14;99724.97;;;10.55;47.30
11172;BME280;5642;50.830;12.082;2024-02-14T04:23:41;99715.34;;;10.55;47.24
11172;BME280;5642;50.830;12.082;2024-02-14T04:26:08;99723.97;;;10.59;47.34
11172;BME280;5642;50.830;12.082;2024-02-14T04:28:34;99713.56;;;10.57;47.21
11172;BME280;5642;50.830;12.082;2024-02-14T04:31:01;99715.03;;;10.66;47.47
11172;BME280;5642;50.830;12.082;2024-02-14T04:33:28;99676.34;;;10.45;47.42
11172;BME280;5642;50.830;12.082;2024-02-14T04:35:55;99708.84;;;10.70;47.47
11172;BME280;5642;50.830;12.082;2024-02-14T04:38:24;99710.47;;;10.74;47.22
11172;BME280;5642;50.830;12.082;2024-02-14T04:40:50;99712.13;;;10.78;47.53
11172;BME280;5642;50.830;12.082;2024-02-14T04:43:18;99668.00;;;10.63;47.37
11172;BME280;5642;50.830;12.082;2024-02-14T04:45:47;99657.72;;;10.55;47.04
11172;BME280;5642;50.830;12.082;2024-02-14T04:48:14;99701.47;;;10.84;47.03
11172;BME280;5642;50.830;12.082;2024-02-14T04:50:41;99704.03;;;10.86;47.57
11172;BME280;5642;50.830;12.082;2024-02-14T04:53:07;99674.66;;;10.75;47.21
11172;BME280;5642;50.830;12.082;2024-02-14T04:55:35;99666.91;;;10.70;47.17
11172;BME280;5642;50.830;12.082;2024-02-14T04:58:03;99668.81;;;10.65;47.50
11172;BME280;5642;50.830;12.082;2024-02-14T05:00:31;99690.28;;;10.78;47.33
11172;BME280;5642;50.830;12.082;2024-02-14T05:02:58;99667.75;;;10.72;47.42
11172;BME280;5642;50.830;12.082;2024-02-14T05:05:23;99674.53;;;10.79;47.41
11172;BME280;5642;50.830;12.082;2024-02-14T05:07:49;99666.13;;;10.67;47.49
11172;BME280;5642;50.830;12.082;2024-02-14T05:10:16;99670.50;;;10.66;47.27
11172;BME280;5642;50.830;12.082;2024-02-14T05:12:42;99682.69;;;10.69;47.10
11172;BME280;5642;50.830;12.082;2024-02-14T05:15:09;99647.50;;;10.46;47.23
11172;BME280;5642;50.830;12.082;2024-02-14T05:17:36;99665.53;;;10.57;47.17
11172;BME280;5642;50.830;12.082;2024-02-14T05:20:07;99692.31;;;10.67;47.33
11172;BME280;5642;50.830;12.082;2024-02-14T05:22:37;99688.91;;;10.65;47.39
11172;BME280;5642;50.830;12.082;2024-02-14T05:25:04;99642.59;;;10.34;47.53
11172;BME280;5642;50.830;12.082;2024-02-14T05:27:34;99689.09;;;10.58;47.34
11172;BME280;5642;50.830;12.082;2024-02-14T05:30:01;99691.47;;;10.66;47.09
11172;BME280;5642;50.830;12.082;2024-02-14T05:32:32;99694.88;;;10.70;47.32
11172;BME280;5642;50.830;12.082;2024-02-14T05:35:00;99698.25;;;10.73;47.26
11172;BME280;5642;50.830;12.082;2024-02-14T05:37:26;99662.91;;;10.58;47.11
11172;BME280;5642;50.830;12.082;2024-02-14T05:39:55;99695.59;;;10.75;47.00
11172;BME280;5642;50.830;12.082;2024-02-14T05:42:22;99683.56;;;10.68;47.34
11172;BME280;5642;50.830;12.082;2024-02-14T05:44:50;99639.66;;;10.45;47.05
11172;BME280;5642;50.830;12.082;2024-02-14T05:47:17;99619.06;;;10.33;47.36
11172;BME280;5642;50.830;12.082;2024-02-14T05:49:45;99674.81;;;10.69;47.09
11172;BME280;5642;50.830;12.082;2024-02-14T05:52:11;99664.38;;;10.67;47.18
11172;BME280;5642;50.830;12.082;2024-02-14T05:54:37;99652.31;;;10.62;47.18
11172;BME280;5642;50.830;12.082;2024-02-14T05:57:04;99672.03;;;10.75;47.09
11172;BME280;5642;50.830;12.082;2024-02-14T05:59:32;99676.47;;;10.73;47.13
11172;BME280;5642;50.830;12.082;2024-02-14T06:01:58;99662.72;;;10.65;47.18
11172;BME280;5642;50.830;12.082;2024-02-14T06:04:27;99645.31;;;10.62;47.04
11172;BME280;5642;50.830;12.082;2024-02-14T06:06:57;99640.91;;;10.64;46.99
11172;BME280;5642;50.830;12.082;2024-02-14T06:09:24;99649.44;;;10.71;47.27
11172;BME280;5642;50.830;12.082;2024-02-14T06:11:50;99646.13;;;10.64;47.06
11172;BME280;5642;50.830;12.082;2024-02-14T06:14:17;99673.84;;;10.73;47.06
11172;BME280;5642;50.830;12.082;2024-02-14T06:16:44;99645.44;;;10.57;47.21
11172;BME280;5642;50.830;12.082;2024-02-14T06:19:10;99671.97;;;10.76;47.30
11172;BME280;5642;50.830;12.082;2024-02-14T06:21:37;99669.31;;;10.78;47.41
11172;BME280;5642;50.830;12.082;2024-02-14T06:24:05;99646.88;;;10.69;47.11
11172;BME280;5642;50.830;12.082;2024-02-14T06:26:33;99663.91;;;10.84;47.26
11172;BME280;5642;50.830;12.082;2024-02-14T06:29:00;99651.75;;;10.81;47.12
11172;BME280;5642;50.830;12.082;2024-02-14T06:31:28;99607.81;;;10.60;47.15
11172;BME280;5642;50.830;12.082;2024-02-14T06:33:55;99664.44;;;10.95;47.24
11172;BME280;5642;50.830;12.082;2024-02-14T06:36:23;99665.31;;;10.95;47.37
11172;BME280;5642;50.830;12.082;2024-02-14T06:38:50;99612.94;;;10.65;47.23
11172;BME280;5642;50.830;12.082;2024-02-14T06:41:17;99585.38;;;10.51;47.39
11172;BME280;5642;50.830;12.082;2024-02-14T06:43:43;99614.59;;;10.67;47.24
11172;BME280;5642;50.830;12.082;2024-02-14T06:46:09;99629.19;;;10.76;47.18
11172;BME280;5642;50.830;12.082;2024-02-14T06:48:35;99672.38;;;10.93;46.99
11172;BME280;5642;50.830;12.082;2024-02-14T06:51:01;99629.41;;;10.68;47.26
11172;BME280;5642;50.830;12.082;2024-02-14T06:53:31;99674.13;;;10.93;47.20
11172;BME280;5642;50.830;12.082;2024-02-14T06:55:58;99664.66;;;10.87;47.25
11172;BME280;5642;50.830;12.082;2024-02-14T06:58:26;99638.72;;;10.80;46.90
11172;BME280;5642;50.830;12.082;2024-02-14T07:00:53;99660.97;;;10.94;47.00
11172;BME280;5642;50.830;12.082;2024-02-14T07:03:20;99666.13;;;10.97;46.94
11172;BME280;5642;50.830;12.082;2024-02-14T07:05:47;99670.16;;;11.09;47.13
11172;BME280;5642;50.830;12.082;2024-02-14T07:08:15;99646.66;;;11.06;46.76
11172;BME280;5642;50.830;12.082;2024-02-14T07:10:41;99594.63;;;10.94;47.04
11172;BME280;5642;50.830;12.082;2024-02-14T07:13:09;99650.00;;;11.39;46.67
11172;BME280;5642;50.830;12.082;2024-02-14T07:15:39;99572.41;;;11.06;46.71
11172;BME280;5642;50.830;12.082;2024-02-14T07:18:10;99618.50;;;11.41;46.58
11172;BME280;5642;50.830;12.082;2024-02-14T07:20:38;99584.59;;;11.34;46.63
11172;BME280;5642;50.830;12.082;2024-02-14T07:23:10;99641.84;;;11.77;46.83
11172;BME280;5642;50.830;12.082;2024-02-14T07:25:40;99598.59;;;11.61;46.31
11172;BME280;5642;50.830;12.082;2024-02-14T07:28:19;99617.19;;;11.82;46.24
11172;BME280;5642;50.830;12.082;2024-02-14T07:30:46;99565.03;;;11.71;45.95
11172;BME280;5642;50.830;12.082;2024-02-14T07:33:14;99582.13;;;12.09;45.97
11172;BME280;5642;50.830;12.082;2024-02-14T07:35:41;99584.22;;;12.24;46.03
11172;BME280;5642;50.830;12.082;2024-02-14T07:38:10;99575.84;;;12.38;46.08
11172;BME280;5642;50.830;12.082;2024-02-14T07:40:38;99660.03;;;12.83;45.62
11172;BME280;5642;50.830;12.082;2024-02-14T07:43:06;99614.47;;;12.59;45.70
11172;BME280;5642;50.830;12.082;2024-02-14T07:45:37;99581.72;;;12.44;45.77
11172;BME280;5642;50.830;12.082;2024-02-14T07:48:16;99660.56;;;12.92;45.99
11172;BME280;5642;50.830;12.082;2024-02-14T07:50:48;99619.16;;;12.74;45.95
11172;BME280;5642;50.830;12.082;2024-02-14T07:53:17;99624.81;;;12.87;46.01
11172;BME280;5642;50.830;12.082;2024-02-14T07:55:43;99602.16;;;12.84;46.17
11172;BME280;5642;50.830;12.082;2024-02-14T07:58:09;99597.63;;;12.88;45.91
11172;BME280;5642;50.830;12.082;2024-02-14T08:00:43;99554.84;;;12.61;45.79
11172;BME280;5642;50.830;12.082;2024-02-14T08:03:24;99664.38;;;13.30;46.01
11172;BME280;5642;50.830;12.082;2024-02-14T08:06:01;99569.47;;;12.68;46.06
11172;BME280;5642;50.830;12.082;2024-02-14T08:08:27;99598.28;;;12.93;46.26
11172;BME280;5642;50.830;12.082;2024-02-14T08:10:59;99606.69;;;13.03;46.25
11172;BME280;5642;50.830;12.082;2024-02-14T08:13:31;99600.09;;;12.92;46.10
11172;BME280;5642;50.830;12.082;2024-02-14T08:16:00;99584.47;;;12.88;46.01
11172;BME280;5642;50.830;12.082;2024-02-14T08:18:29;99623.16;;;13.08;46.08
11172;BME280;5642;50.830;12.082;2024-02-14T08:20:58;99579.88;;;12.93;45.96
11172;BME280;5642;50.830;12.082;2024-02-14T08:23:24;99575.13;;;13.03;45.74
11172;BME280;5642;50.830;12.082;2024-02-14T08:25:58;99599.78;;;13.45;45.78
11172;BME280;5642;50.830;12.082;2024-02-14T08:28:24;99585.69;;;13.68;45.61
11172;BME280;5642;50.830;12.082;2024-02-14T08:30:51;99559.16;;;13.72;45.31
11172;BME280;5642;50.830;12.082;2024-02-14T08:33:20;99668.97;;;14.55;45.22
11172;BME280;5642;50.830;12.082;2024-02-14T08:35:49;99617.50;;;14.46;45.07
11172;BME280;5642;50.830;12.082;2024-02-14T08:38:18;99581.13;;;14.54;44.88
11172;BME280;5642;50.830;12.082;2024-02-14T08:40:46;99622.75;;;14.85;44.91
11172;BME280;5642;50.830;12.082;2024-02-14T08:43:17;99595.75;;;14.80;44.92
11172;BME280;5642;50.830;12.082;2024-02-14T08:46:01;99587.19;;;14.75;44.92
11172;BME280;5642;50.830;12.082;2024-02-14T08:48:35;99642.63;;;15.12;45.06
11172;BME280;5642;50.830;12.082;2024-02-14T08:51:08;99654.94;;;15.31;44.93
11172;BME280;5642;50.830;12.082;2024-02-14T08:53:36;99646.31;;;15.27;44.76
11172;BME280;5642;50.830;12.082;2024-02-14T08:56:03;99596.97;;;14.92;45.03
11172;BME280;5642;50.830;12.082;2024-02-14T08:58:35;99623.94;;;14.98;45.23
11172;BME280;5642;50.830;12.082;2024-02-14T09:01:05;99609.00;;;14.78;45.16
11172;BME280;5642;50.830;12.082;2024-02-14T09:03:33;99612.13;;;14.68;45.42
11172;BME280;5642;50.830;12.082;2024-02-14T09:06:10;99677.38;;;15.02;45.37
11172;BME280;5642;50.830;12.082;2024-02-14T09:08:49;99644.28;;;14.76;45.54
11172;BME280;5642;50.830;12.082;2024-02-14T09:11:23;99632.31;;;14.48;45.54
11172;BME280;5642;50.830;12.082;2024-02-14T09:13:55;99613.13;;;14.25;45.86
11172;BME280;5642;50.830;12.082;2024-02-14T09:16:28;99665.75;;;14.48;45.86
11172;BME280;5642;50.830;12.082;2024-02-14T09:18:55;99656.53;;;14.36;45.80
11172;BME280;5642;50.830;12.082;2024-02-14T09:21:30;99601.13;;;13.97;45.97
11172;BME280;5642;50.830;12.082;2024-02-14T09:23:57;99640.91;;;14.11;46.04
11172;BME280;5642;50.830;12.082;2024-02-14T09:26:24;99655.38;;;14.01;45.96
11172;BME280;5642;50.830;12.082;2024-02-14T09:28:52;99653.88;;;13.96;45.88
11172;BME280;5642;50.830;12.082;2024-02-14T09:31:26;99703.56;;;14.25;45.76
11172;BME280;5642;50.830;12.082;2024-02-14T09:33:52;99697.63;;;14.20;45.98
11172;BME280;5642;50.830;12.082;2024-02-14T09:36:24;99668.38;;;14.06;45.91
11172;BME280;5642;50.830;12.082;2024-02-14T09:38:53;99710.34;;;14.31;45.77
11172;BME280;5642;50.830;12.082;2024-02-14T09:41:36;99723.59;;;14.29;45.68
11172;BME280;5642;50.830;12.082;2024-02-14T09:44:04;99645.63;;;13.83;45.93
11172;BME280;5642;50.830;12.082;2024-02-14T09:46:38;99688.41;;;14.10;45.89
11172;BME280;5642;50.830;12.082;2024-02-14T09:49:06;99690.72;;;14.18;45.90
11172;BME280;5642;50.830;12.082;2024-02-14T09:51:40;99641.94;;;13.87;45.89
11172;BME280;5642;50.830;12.082;2024-02-14T09:54:07;99677.13;;;14.06;46.09
11172;BME280;5642;50.830;12.082;2024-02-14T09:56:35;99707.72;;;14.31;45.86
11172;BME280;5642;50.830;12.082;2024-02-14T09:59:02;99693.63;;;14.32;45.83
11172;BME280;5642;50.830;12.082;2024-02-14T10:01:28;99643.38;;;13.94;45.91
11172;BME280;5642;50.830;12.082;2024-02-14T10:03:55;99672.22;;;14.19;45.82
11172;BME280;5642;50.830;12.082;2024-02-14T10:06:21;99691.78;;;14.34;45.69
11172;BME280;5642;50.830;12.082;2024-02-14T10:08:54;99611.06;;;13.91;45.64
11172;BME280;5642;50.830;12.082;2024-02-14T10:11:24;99653.19;;;14.13;45.75
11172;BME280;5642;50.830;12.082;2024-02-14T10:13:53;99621.41;;;13.95;45.92
11172;BME280;5642;50.830;12.082;2024-02-14T10:16:26;99631.72;;;14.00;45.71
11172;BME280;5642;50.830;12.082;2024-02-14T10:18:54;99645.34;;;14.11;45.80
11172;BME280;5642;50.830;12.082;2024-02-14T10:21:23;99637.16;;;14.17;45.68
11172;BME280;5642;50.830;12.082;2024-02-14T10:23:54;99677.13;;;14.48;45.53
11172;BME280;5642;50.830;12.082;2024-02-14T10:26:25;99607.78;;;14.26;45.42
11172;BME280;5642;50.830;12.082;2024-02-14T10:28:51;99655.97;;;14.70;45.46
11172;BME280;5642;50.830;12.082;2024-02-14T10:31:17;99626.09;;;14.70;45.37
11172;BME280;5642;50.830;12.082;2024-02-14T10:33:43;99714.94;;;15.46;45.33
11172;BME280;5642;50.830;12.082;2024-02-14T10:36:14;99696.69;;;15.60;45.04
11172;BME280;5642;50.830;12.082;2024-02-14T10:38:41;99621.63;;;15.47;44.90
11172;BME280;5642;50.830;12.082;2024-02-14T10:41:09;99635.59;;;15.68;44.88
11172;BME280;5642;50.830;12.082;2024-02-14T10:43:48;99614.53;;;15.66;44.76
11172;BME280;5642;50.830;12.082;2024-02-14T10:46:26;99713.47;;;16.31;44.61
11172;BME280;5642;50.830;12.082;2024-02-14T10:49:04;99707.38;;;16.29;44.92
11172;BME280;5642;50.830;12.082;2024-02-14T10:51:32;99693.81;;;16.19;44.82
11172;BME280;5642;50.830;12.082;2024-02-14T10:54:10;99629.94;;;15.75;44.77
11172;BME280;5642;50.830;12.082;2024-02-14T10:56:42;99672.88;;;15.97;44.84
11172;BME280;5642;50.830;12.082;2024-02-14T10:59:20;99690.44;;;16.16;44.98
11172;BME280;5642;50.830;12.082;2024-02-14T11:01:53;99686.16;;;16.13;44.95
11172;BME280;5642;50.830;12.082;2024-02-14T11:04:26;99620.84;;;15.81;45.10
11172;BME280;5642;50.830;12.082;2024-02-14T11:06:53;99628.72;;;15.99;45.00
11172;BME280;5642;50.830;12.082;2024-02-14T11:09:35;99609.28;;;16.18;44.83
11172;BME280;5642;50.830;12.082;2024-02-14T11:12:01;99692.44;;;16.97;44.81
11172;BME280;5642;50.830;12.082;2024-02-14T11:14:32;99710.28;;;17.26;44.65
11172;BME280;5642;50.830;12.082;2024-02-14T11:17:15;99693.44;;;17.27;44.52
11172;BME280;5642;50.830;12.082;2024-02-14T11:19:49;99699.88;;;17.39;44.66
11172;BME280;5642;50.830;12.082;2024-02-14T11:22:19;99632.34;;;16.99;44.52
11172;BME280;5642;50.830;12.082;2024-02-14T11:27:51;99662.69;;;16.76;44.81
11172;BME280;5642;50.830;12.082;2024-02-14T11:30:33;99650.56;;;16.55;44.80
11172;BME280;5642;50.830;12.082;2024-02-14T11:33:16;99712.13;;;16.57;44.68
11172;BME280;5642;50.830;12.082;2024-02-14T11:35:45;99632.53;;;15.94;45.03
11172;BME280;5642;50.830;12.082;2024-02-14T11:38:11;99644.31;;;15.87;44.93
11172;BME280;5642;50.830;12.082;2024-02-14T11:40:38;99693.78;;;16.02;45.01
11172;BME280;5642;50.830;12.082;2024-02-14T11:43:10;99700.75;;;16.03;45.02
11172;BME280;5642;50.830;12.082;2024-02-14T11:45:39;99686.94;;;15.79;45.06
11172;BME280;5642;50.830;12.082;2024-02-14T11:48:11;99700.41;;;15.75;45.05
11172;BME280;5642;50.830;12.082;2024-02-14T11:50:41;99717.66;;;15.82;45.11
11172;BME280;5642;50.830;12.082;2024-02-14T11:53:13;99636.81;;;15.23;45.19
11172;BME280;5642;50.830;12.082;2024-02-14T11:55:43;99693.66;;;15.49;44.91
11172;BME280;5642;50.830;12.082;2024-02-14T11:58:11;99655.44;;;15.20;45.28
11172;BME280;5642;50.830;12.082;2024-02-14T12:00:43;99658.00;;;15.21;45.15
11172;BME280;5642;50.830;12.082;2024-02-14T12:03:20;99716.91;;;15.61;45.11
11172;BME280;5642;50.830;12.082;2024-02-14T12:05:49;99657.44;;;15.34;45.12
11172;BME280;5642;50.830;12.082;2024-02-14T12:08:16;99678.44;;;15.55;45.06
11172;BME280;5642;50.830;12.082;2024-02-14T12:10:46;99621.84;;;15.23;45.18
11172;BME280;5642;50.830;12.082;2024-02-14T12:13:25;99618.97;;;15.28;44.83
11172;BME280;5642;50.830;12.082;2024-02-14T12:15:52;99616.06;;;15.34;45.12
11172;BME280;5642;50.830;12.082;2024-02-14T12:18:20;99626.72;;;15.50;44.98
11172;BME280;5642;50.830;12.082;2024-02-14T12:20:48;99600.88;;;15.39;44.98
11172;BME280;5642;50.830;12.082;2024-02-14T12:23:19;99623.69;;;15.59;45.03
11172;BME280;5642;50.830;12.082;2024-02-14T12:25:46;99648.81;;;15.68;44.92
11172;BME280;5642;50.830;12.082;2024-02-14T12:28:19;99640.94;;;15.66;44.89
11172;BME280;5642;50.830;12.082;2024-02-14T12:30:49;99625.81;;;15.51;45.07
11172;BME280;5642;50.830;12.082;2024-02-14T12:33:18;99663.78;;;15.67;45.28
11172;BME280;5642;50.830;12.082;2024-02-14T12:35:48;99633.47;;;15.57;45.05
11172;BME280;5642;50.830;12.082;2024-02-14T12:38:21;99634.41;;;15.56;45.03
11172;BME280;5642;50.830;12.082;2024-02-14T12:41:03;99692.44;;;15.93;45.21
11172;BME280;5642;50.830;12.082;2024-02-14T12:43:34;99653.84;;;15.72;44.89
11172;BME280;5642;50.830;12.082;2024-02-14T12:46:10;99617.41;;;15.43;45.10
11172;BME280;5642;50.830;12.082;2024-02-14T12:48:37;99628.63;;;15.48;45.20
11172;BME280;5642;50.830;12.082;2024-02-14T12:51:12;99686.09;;;15.79;45.33
11172;BME280;5642;50.830;12.082;2024-02-14T12:53:42;99709.94;;;15.96;45.16
11172;BME280;5642;50.830;12.082;2024-02-14T12:56:10;99713.78;;;15.89;45.23
11172;BME280;5642;50.830;12.082;2024-02-14T12:58:39;99718.59;;;15.81;45.30
11172;BME280;5642;50.830;12.082;2024-02-14T13:01:07;99651.22;;;15.35;45.35
11172;BME280;5642;50.830;12.082;2024-02-14T13:03:39;99659.13;;;15.35;45.36
11172;BME280;5642;50.830;12.082;2024-02-14T13:06:08;99634.47;;;15.17;45.38
11172;BME280;5642;50.830;12.082;2024-02-14T13:08:47;99709.78;;;15.63;45.40
11172;BME280;5642;50.830;12.082;2024-02-14T13:11:15;99710.69;;;15.62;45.23
11172;BME280;5642;50.830;12.082;2024-02-14T13:13:49;99708.75;;;15.65;45.26